CYUL/YUL METAR and TAF weather

Enter ICAO airport designator
Station Type Date Time Source
CYUL METAR 2018/07/20 14:00 UTC NOAA

CYUL 201400Z 00000KT 30SM SCT250 25/12 A3014 RMK CI4 SLP207 DENSITY ALT 1100FT


Station Type Date Time Source
CYUL Decoded METAR 2018/07/20 14:00 UTC NOAA

Montreal / Pierre Elliot Trudeau International Airport, Que, Canada (CYUL) 45-28N 073-45W 36M
Jul 20, 2018 - 10:00 AM EDT / 2018.07.20 1400 UTC
Wind: Calm:0
Visibility: 30 mile(s):0
Sky conditions: partly cloudy
Temperature: 77 F (25 C)
Dew Point: 53 F (12 C)
Relative Humidity: 44%
Pressure (altimeter): 30.14 in. Hg (1020 hPa)
ob: CYUL 201400Z 00000KT 30SM SCT250 25/12 A3014 RMK CI4 SLP207 DENSITY ALT 1100FT
cycle: 14

Station Type Date Time Source
CYUL TAF 2018/07/20 12:42 UTC NOAA

TAF CYUL 201138Z 2012/2112 VRB03KT P6SM SKC
BECMG 2014/2016 13012KT
FM210100 11006KT P6SM SKC
RMK NXT FCST BY 201500Z


Example: see airport list